SPJL/JUL METAR and TAF weather

Enter ICAO airport designator
Station Type Date Time Source
SPJL METAR 2024/06/15 22:00 UTC NOAA

SPJL 152200Z 13010KT CAVOK 15/M03 Q1033 RMK TX18.6 BIRD HAZARD RWY 12/30 PP000


Station Type Date Time Source
SPJL Decoded METAR 2024/06/15 22:00 UTC NOAA

Juliaca, Peru (SPJL) 15-29S 070-09W 3827M
Jun 15, 2024 - 06:00 PM EDT / 2024.06.15 2200 UTC
Wind: from the SE (130 degrees) at 12 MPH (10 KT):0
Visibility: greater than 7 mile(s):0
Temperature: 59 F (15 C)
Dew Point: 26 F (-3 C)
Relative Humidity: 28%
Pressure (altimeter): 30.50 in. Hg (1033 hPa)
ob: SPJL 152200Z 13010KT CAVOK 15/M03 Q1033 RMK TX18.6 BIRD HAZARD RWY 12/30 PP000
cycle: 22

Station Type Date Time Source
SPJL TAF 2024/06/15 18:33 UTC NOAA